sensor_id;sensor_type;location;lat;lon;timestamp;P1;P2;P0
67892;PMS7003;54688;52.376;16.744;2024-01-10T00:02:37;210;145;
67892;PMS7003;54688;52.376;16.744;2024-01-10T00:05:40;193;150;
67892;PMS7003;54688;52.376;16.744;2024-01-10T00:08:43;199;146;
67892;PMS7003;54688;52.376;16.744;2024-01-10T00:11:45;193;152;
67892;PMS7003;54688;52.376;16.744;2024-01-10T00:14:47;193;143;
67892;PMS7003;54688;52.376;16.744;2024-01-10T00:17:50;203;156;
67892;PMS7003;54688;52.376;16.744;2024-01-10T00:20:52;200;144;
67892;PMS7003;54688;52.376;16.744;2024-01-10T00:23:55;221;154;
67892;PMS7003;54688;52.376;16.744;2024-01-10T00:26:57;227;174;
67892;PMS7003;54688;52.376;16.744;2024-01-10T00:30:00;200;154;
67892;PMS7003;54688;52.376;16.744;2024-01-10T00:33:03;223;169;
67892;PMS7003;54688;52.376;16.744;2024-01-10T00:36:06;208;151;
67892;PMS7003;54688;52.376;16.744;2024-01-10T00:39:08;205;161;
67892;PMS7003;54688;52.376;16.744;2024-01-10T00:42:11;218;164;
67892;PMS7003;54688;52.376;16.744;2024-01-10T00:45:13;229;166;
67892;PMS7003;54688;52.376;16.744;2024-01-10T00:48:15;213;167;
67892;PMS7003;54688;52.376;16.744;2024-01-10T00:51:18;221;171;
67892;PMS7003;54688;52.376;16.744;2024-01-10T00:54:20;231;174;
67892;PMS7003;54688;52.376;16.744;2024-01-10T00:57:23;251;182;
67892;PMS7003;54688;52.376;16.744;2024-01-10T01:00:25;248;182;
67892;PMS7003;54688;52.376;16.744;2024-01-10T01:03:27;241;188;
67892;PMS7003;54688;52.376;16.744;2024-01-10T01:06:30;253;178;
67892;PMS7003;54688;52.376;16.744;2024-01-10T01:09:33;252;180;
67892;PMS7003;54688;52.376;16.744;2024-01-10T01:12:35;242;185;
67892;PMS7003;54688;52.376;16.744;2024-01-10T01:15:38;261;187;
67892;PMS7003;54688;52.376;16.744;2024-01-10T01:18:40;259;188;
67892;PMS7003;54688;52.376;16.744;2024-01-10T01:21:43;276;193;
67892;PMS7003;54688;52.376;16.744;2024-01-10T01:24:45;275;189;
67892;PMS7003;54688;52.376;16.744;2024-01-10T01:27:47;280;197;
67892;PMS7003;54688;52.376;16.744;2024-01-10T01:30:49;260;196;
67892;PMS7003;54688;52.376;16.744;2024-01-10T01:33:51;275;197;
67892;PMS7003;54688;52.376;16.744;2024-01-10T01:36:53;269;203;
67892;PMS7003;54688;52.376;16.744;2024-01-10T01:39:56;283;212;
67892;PMS7003;54688;52.376;16.744;2024-01-10T01:42:58;269;207;
67892;PMS7003;54688;52.376;16.744;2024-01-10T01:46:02;272;210;
67892;PMS7003;54688;52.376;16.744;2024-01-10T01:49:04;284;208;
67892;PMS7003;54688;52.376;16.744;2024-01-10T01:52:07;269;195;
67892;PMS7003;54688;52.376;16.744;2024-01-10T01:55:09;266;197;
67892;PMS7003;54688;52.376;16.744;2024-01-10T01:58:12;261;185;
67892;PMS7003;54688;52.376;16.744;2024-01-10T02:01:14;254;189;
67892;PMS7003;54688;52.376;16.744;2024-01-10T02:04:18;264;184;
67892;PMS7003;54688;52.376;16.744;2024-01-10T02:07:20;276;188;
67892;PMS7003;54688;52.376;16.744;2024-01-10T02:10:22;289;202;
67892;PMS7003;54688;52.376;16.744;2024-01-10T02:13:25;260;203;
67892;PMS7003;54688;52.376;16.744;2024-01-10T02:16:28;261;196;
67892;PMS7003;54688;52.376;16.744;2024-01-10T02:19:30;274;215;
67892;PMS7003;54688;52.376;16.744;2024-01-10T02:22:32;288;212;
67892;PMS7003;54688;52.376;16.744;2024-01-10T02:25:35;291;207;
67892;PMS7003;54688;52.376;16.744;2024-01-10T02:28:37;243;194;
67892;PMS7003;54688;52.376;16.744;2024-01-10T02:31:39;265;193;
67892;PMS7003;54688;52.376;16.744;2024-01-10T02:34:42;278;206;
67892;PMS7003;54688;52.376;16.744;2024-01-10T02:37:44;288;198;
67892;PMS7003;54688;52.376;16.744;2024-01-10T02:40:47;236;172;
67892;PMS7003;54688;52.376;16.744;2024-01-10T02:43:49;233;179;
67892;PMS7003;54688;52.376;16.744;2024-01-10T02:46:52;223;166;
67892;PMS7003;54688;52.376;16.744;2024-01-10T02:49:55;222;169;
67892;PMS7003;54688;52.376;16.744;2024-01-10T02:52:57;230;160;
67892;PMS7003;54688;52.376;16.744;2024-01-10T02:55:58;232;165;
67892;PMS7003;54688;52.376;16.744;2024-01-10T02:59:01;220;159;
67892;PMS7003;54688;52.376;16.744;2024-01-10T03:02:03;189;149;
67892;PMS7003;54688;52.376;16.744;2024-01-10T03:05:05;203;161;
67892;PMS7003;54688;52.376;16.744;2024-01-10T03:08:07;238;167;
67892;PMS7003;54688;52.376;16.744;2024-01-10T03:11:09;217;153;
67892;PMS7003;54688;52.376;16.744;2024-01-10T03:14:11;177;135;
67892;PMS7003;54688;52.376;16.744;2024-01-10T03:17:14;203;148;
67892;PMS7003;54688;52.376;16.744;2024-01-10T03:20:16;185;145;
67892;PMS7003;54688;52.376;16.744;2024-01-10T03:23:18;186;141;
67892;PMS7003;54688;52.376;16.744;2024-01-10T03:26:21;197;149;
67892;PMS7003;54688;52.376;16.744;2024-01-10T03:29:23;187;145;
67892;PMS7003;54688;52.376;16.744;2024-01-10T03:32:25;199;149;
67892;PMS7003;54688;52.376;16.744;2024-01-10T03:35:28;189;143;
67892;PMS7003;54688;52.376;16.744;2024-01-10T03:38:30;180;136;
67892;PMS7003;54688;52.376;16.744;2024-01-10T03:41:33;191;141;
67892;PMS7003;54688;52.376;16.744;2024-01-10T03:44:35;188;142;
67892;PMS7003;54688;52.376;16.744;2024-01-10T03:47:37;209;154;
67892;PMS7003;54688;52.376;16.744;2024-01-10T03:50:40;222;162;
67892;PMS7003;54688;52.376;16.744;2024-01-10T03:53:42;228;164;
67892;PMS7003;54688;52.376;16.744;2024-01-10T03:56:44;202;153;
67892;PMS7003;54688;52.376;16.744;2024-01-10T03:59:47;196;140;
67892;PMS7003;54688;52.376;16.744;2024-01-10T04:02:48;178;140;
67892;PMS7003;54688;52.376;16.744;2024-01-10T04:05:51;197;139;
67892;PMS7003;54688;52.376;16.744;2024-01-10T04:08:53;182;156;
67892;PMS7003;54688;52.376;16.744;2024-01-10T04:11:55;193;153;
67892;PMS7003;54688;52.376;16.744;2024-01-10T04:14:57;186;137;
67892;PMS7003;54688;52.376;16.744;2024-01-10T04:17:59;166;134;
67892;PMS7003;54688;52.376;16.744;2024-01-10T04:21:02;182;135;
67892;PMS7003;54688;52.376;16.744;2024-01-10T04:24:05;188;149;
67892;PMS7003;54688;52.376;16.744;2024-01-10T04:27:07;175;128;
67892;PMS7003;54688;52.376;16.744;2024-01-10T04:30:11;191;134;
67892;PMS7003;54688;52.376;16.744;2024-01-10T04:33:13;170;140;
67892;PMS7003;54688;52.376;16.744;2024-01-10T04:36:16;167;132;
67892;PMS7003;54688;52.376;16.744;2024-01-10T04:39:18;167;123;
67892;PMS7003;54688;52.376;16.744;2024-01-10T04:42:21;165;129;
67892;PMS7003;54688;52.376;16.744;2024-01-10T04:48:22;161;120;
67892;PMS7003;54688;52.376;16.744;2024-01-10T04:51:24;155;116;
67892;PMS7003;54688;52.376;16.744;2024-01-10T04:54:27;161;123;
67892;PMS7003;54688;52.376;16.744;2024-01-10T04:57:29;157;123;
67892;PMS7003;54688;52.376;16.744;2024-01-10T05:00:31;160;126;
67892;PMS7003;54688;52.376;16.744;2024-01-10T05:03:34;168;127;
67892;PMS7003;54688;52.376;16.744;2024-01-10T05:06:37;157;122;
67892;PMS7003;54688;52.376;16.744;2024-01-10T05:09:39;145;115;
67892;PMS7003;54688;52.376;16.744;2024-01-10T05:12:41;162;119;
67892;PMS7003;54688;52.376;16.744;2024-01-10T05:15:43;162;126;
67892;PMS7003;54688;52.376;16.744;2024-01-10T05:18:46;164;128;
67892;PMS7003;54688;52.376;16.744;2024-01-10T05:21:48;198;143;
67892;PMS7003;54688;52.376;16.744;2024-01-10T05:24:50;181;138;
67892;PMS7003;54688;52.376;16.744;2024-01-10T05:27:53;179;133;
67892;PMS7003;54688;52.376;16.744;2024-01-10T05:30:56;179;130;
67892;PMS7003;54688;52.376;16.744;2024-01-10T05:33:58;187;141;
67892;PMS7003;54688;52.376;16.744;2024-01-10T05:37:01;190;141;
67892;PMS7003;54688;52.376;16.744;2024-01-10T05:40:04;209;142;
67892;PMS7003;54688;52.376;16.744;2024-01-10T05:43:06;188;139;
67892;PMS7003;54688;52.376;16.744;2024-01-10T05:46:09;183;135;
67892;PMS7003;54688;52.376;16.744;2024-01-10T05:49:11;202;144;
67892;PMS7003;54688;52.376;16.744;2024-01-10T05:52:14;183;141;
67892;PMS7003;54688;52.376;16.744;2024-01-10T05:55:16;214;153;
67892;PMS7003;54688;52.376;16.744;2024-01-10T05:58:18;189;149;
67892;PMS7003;54688;52.376;16.744;2024-01-10T06:01:21;189;149;
67892;PMS7003;54688;52.376;16.744;2024-01-10T06:04:24;189;149;
67892;PMS7003;54688;52.376;16.744;2024-01-10T06:07:26;202;138;
67892;PMS7003;54688;52.376;16.744;2024-01-10T06:10:28;198;146;
67892;PMS7003;54688;52.376;16.744;2024-01-10T06:13:30;198;145;
67892;PMS7003;54688;52.376;16.744;2024-01-10T06:16:33;185;141;
67892;PMS7003;54688;52.376;16.744;2024-01-10T06:19:34;197;145;
67892;PMS7003;54688;52.376;16.744;2024-01-10T06:22:36;185;142;
67892;PMS7003;54688;52.376;16.744;2024-01-10T06:25:39;234;168;
67892;PMS7003;54688;52.376;16.744;2024-01-10T06:28:41;256;197;
67892;PMS7003;54688;52.376;16.744;2024-01-10T06:31:44;308;232;
67892;PMS7003;54688;52.376;16.744;2024-01-10T06:34:46;315;229;
67892;PMS7003;54688;52.376;16.744;2024-01-10T06:37:48;284;211;
67892;PMS7003;54688;52.376;16.744;2024-01-10T06:40:50;288;219;
67892;PMS7003;54688;52.376;16.744;2024-01-10T06:43:52;274;205;
67892;PMS7003;54688;52.376;16.744;2024-01-10T06:46:54;277;205;
67892;PMS7003;54688;52.376;16.744;2024-01-10T06:49:57;261;190;
67892;PMS7003;54688;52.376;16.744;2024-01-10T06:52:59;269;194;
67892;PMS7003;54688;52.376;16.744;2024-01-10T06:56:02;246;188;
67892;PMS7003;54688;52.376;16.744;2024-01-10T06:59:05;256;189;
67892;PMS7003;54688;52.376;16.744;2024-01-10T07:02:07;228;175;
67892;PMS7003;54688;52.376;16.744;2024-01-10T07:05:10;232;172;
67892;PMS7003;54688;52.376;16.744;2024-01-10T07:08:13;213;164;
67892;PMS7003;54688;52.376;16.744;2024-01-10T07:11:16;232;184;
67892;PMS7003;54688;52.376;16.744;2024-01-10T07:14:19;261;192;
67892;PMS7003;54688;52.376;16.744;2024-01-10T07:17:21;237;184;
67892;PMS7003;54688;52.376;16.744;2024-01-10T07:20:23;218;168;
67892;PMS7003;54688;52.376;16.744;2024-01-10T07:23:25;227;172;
67892;PMS7003;54688;52.376;16.744;2024-01-10T07:26:27;280;203;
67892;PMS7003;54688;52.376;16.744;2024-01-10T07:29:29;239;188;
67892;PMS7003;54688;52.376;16.744;2024-01-10T07:32:32;222;176;
67892;PMS7003;54688;52.376;16.744;2024-01-10T07:35:34;224;169;
67892;PMS7003;54688;52.376;16.744;2024-01-10T07:38:37;209;162;
67892;PMS7003;54688;52.376;16.744;2024-01-10T07:41:39;202;149;
67892;PMS7003;54688;52.376;16.744;2024-01-10T07:44:42;180;145;
67892;PMS7003;54688;52.376;16.744;2024-01-10T07:47:44;212;159;
67892;PMS7003;54688;52.376;16.744;2024-01-10T07:50:46;250;184;
67892;PMS7003;54688;52.376;16.744;2024-01-10T07:53:48;248;188;
67892;PMS7003;54688;52.376;16.744;2024-01-10T07:56:51;273;213;
67892;PMS7003;54688;52.376;16.744;2024-01-10T07:59:53;260;207;
67892;PMS7003;54688;52.376;16.744;2024-01-10T08:02:55;253;191;
67892;PMS7003;54688;52.376;16.744;2024-01-10T08:05:58;284;215;
67892;PMS7003;54688;52.376;16.744;2024-01-10T08:09:01;295;211;
67892;PMS7003;54688;52.376;16.744;2024-01-10T08:12:04;309;217;
67892;PMS7003;54688;52.376;16.744;2024-01-10T08:15:07;270;201;
67892;PMS7003;54688;52.376;16.744;2024-01-10T08:18:10;255;193;
67892;PMS7003;54688;52.376;16.744;2024-01-10T08:21:12;293;224;
67892;PMS7003;54688;52.376;16.744;2024-01-10T08:24:14;286;198;
67892;PMS7003;54688;52.376;16.744;2024-01-10T08:27:17;286;217;
67892;PMS7003;54688;52.376;16.744;2024-01-10T08:30:19;289;213;
67892;PMS7003;54688;52.376;16.744;2024-01-10T08:33:22;285;205;
67892;PMS7003;54688;52.376;16.744;2024-01-10T08:36:24;285;211;
67892;PMS7003;54688;52.376;16.744;2024-01-10T08:39:27;283;221;
67892;PMS7003;54688;52.376;16.744;2024-01-10T08:42:29;270;202;
67892;PMS7003;54688;52.376;16.744;2024-01-10T08:45:32;248;195;
67892;PMS7003;54688;52.376;16.744;2024-01-10T08:48:36;253;191;
67892;PMS7003;54688;52.376;16.744;2024-01-10T08:51:39;236;181;
67892;PMS7003;54688;52.376;16.744;2024-01-10T08:54:41;223;172;
67892;PMS7003;54688;52.376;16.744;2024-01-10T08:57:43;237;168;
67892;PMS7003;54688;52.376;16.744;2024-01-10T09:00:45;195;160;
67892;PMS7003;54688;52.376;16.744;2024-01-10T09:03:48;211;161;
67892;PMS7003;54688;52.376;16.744;2024-01-10T09:06:50;209;161;
67892;PMS7003;54688;52.376;16.744;2024-01-10T09:09:53;227;167;
67892;PMS7003;54688;52.376;16.744;2024-01-10T09:12:58;237;172;
67892;PMS7003;54688;52.376;16.744;2024-01-10T09:16:00;257;186;
67892;PMS7003;54688;52.376;16.744;2024-01-10T09:19:03;252;169;
67892;PMS7003;54688;52.376;16.744;2024-01-10T09:22:05;246;184;
67892;PMS7003;54688;52.376;16.744;2024-01-10T09:25:08;260;185;
67892;PMS7003;54688;52.376;16.744;2024-01-10T09:28:11;274;210;
67892;PMS7003;54688;52.376;16.744;2024-01-10T09:31:13;252;198;
67892;PMS7003;54688;52.376;16.744;2024-01-10T09:34:15;271;212;
67892;PMS7003;54688;52.376;16.744;2024-01-10T09:37:17;276;194;
67892;PMS7003;54688;52.376;16.744;2024-01-10T09:40:20;208;154;
67892;PMS7003;54688;52.376;16.744;2024-01-10T09:43:22;212;155;
67892;PMS7003;54688;52.376;16.744;2024-01-10T09:46:24;195;155;
67892;PMS7003;54688;52.376;16.744;2024-01-10T09:49:27;173;141;
67892;PMS7003;54688;52.376;16.744;2024-01-10T09:52:34;195;142;
67892;PMS7003;54688;52.376;16.744;2024-01-10T09:55:40;199;150;
67892;PMS7003;54688;52.376;16.744;2024-01-10T09:58:43;202;138;
67892;PMS7003;54688;52.376;16.744;2024-01-10T10:01:47;191;156;
67892;PMS7003;54688;52.376;16.744;2024-01-10T10:04:54;179;145;
67892;PMS7003;54688;52.376;16.744;2024-01-10T10:07:56;183;141;
67892;PMS7003;54688;52.376;16.744;2024-01-10T10:10:59;185;140;
67892;PMS7003;54688;52.376;16.744;2024-01-10T10:14:13;178;145;
67892;PMS7003;54688;52.376;16.744;2024-01-10T10:17:17;174;139;
67892;PMS7003;54688;52.376;16.744;2024-01-10T10:23:19;168;126;
67892;PMS7003;54688;52.376;16.744;2024-01-10T10:26:22;155;120;
67892;PMS7003;54688;52.376;16.744;2024-01-10T10:29:25;150;111;
67892;PMS7003;54688;52.376;16.744;2024-01-10T10:32:28;151;112;
67892;PMS7003;54688;52.376;16.744;2024-01-10T10:35:30;145;114;
67892;PMS7003;54688;52.376;16.744;2024-01-10T10:38:32;146;119;
67892;PMS7003;54688;52.376;16.744;2024-01-10T10:41:37;158;122;
67892;PMS7003;54688;52.376;16.744;2024-01-10T10:44:40;152;119;
67892;PMS7003;54688;52.376;16.744;2024-01-10T10:47:46;180;132;
67892;PMS7003;54688;52.376;16.744;2024-01-10T10:50:56;155;126;
67892;PMS7003;54688;52.376;16.744;2024-01-10T10:54:01;154;123;
67892;PMS7003;54688;52.376;16.744;2024-01-10T10:57:04;129;103;
67892;PMS7003;54688;52.376;16.744;2024-01-10T11:00:09;118;95;
67892;PMS7003;54688;52.376;16.744;2024-01-10T11:03:12;117;91;
67892;PMS7003;54688;52.376;16.744;2024-01-10T11:06:17;135;112;
67892;PMS7003;54688;52.376;16.744;2024-01-10T11:09:20;120;97;
67892;PMS7003;54688;52.376;16.744;2024-01-10T11:12:31;118;97;
67892;PMS7003;54688;52.376;16.744;2024-01-10T11:15:52;108;86;
67892;PMS7003;54688;52.376;16.744;2024-01-10T11:20:16;102;85;
67892;PMS7003;54688;52.376;16.744;2024-01-10T11:23:38;107;87;
67892;PMS7003;54688;52.376;16.744;2024-01-10T11:26:40;110;86;
67892;PMS7003;54688;52.376;16.744;2024-01-10T11:29:45;107;80;
67892;PMS7003;54688;52.376;16.744;2024-01-10T11:32:48;101;79;
67892;PMS7003;54688;52.376;16.744;2024-01-10T11:36:11;104;84;
67892;PMS7003;54688;52.376;16.744;2024-01-10T11:39:13;100;77;
67892;PMS7003;54688;52.376;16.744;2024-01-10T11:42:21;107;82;
67892;PMS7003;54688;52.376;16.744;2024-01-10T11:45:36;100;76;
67892;PMS7003;54688;52.376;16.744;2024-01-10T11:48:38;126;101;
67892;PMS7003;54688;52.376;16.744;2024-01-10T11:51:42;135;107;
67892;PMS7003;54688;52.376;16.744;2024-01-10T11:54:44;142;102;
67892;PMS7003;54688;52.376;16.744;2024-01-10T11:58:07;134;106;
67892;PMS7003;54688;52.376;16.744;2024-01-10T12:01:10;135;104;
67892;PMS7003;54688;52.376;16.744;2024-01-10T12:04:13;118;101;
67892;PMS7003;54688;52.376;16.744;2024-01-10T12:07:16;150;110;
67892;PMS7003;54688;52.376;16.744;2024-01-10T12:10:18;135;114;
67892;PMS7003;54688;52.376;16.744;2024-01-10T12:13:20;132;109;
67892;PMS7003;54688;52.376;16.744;2024-01-10T12:16:23;139;109;
67892;PMS7003;54688;52.376;16.744;2024-01-10T12:19:26;138;112;
67892;PMS7003;54688;52.376;16.744;2024-01-10T12:22:28;148;113;
67892;PMS7003;54688;52.376;16.744;2024-01-10T12:25:30;141;113;
67892;PMS7003;54688;52.376;16.744;2024-01-10T12:28:33;143;113;
67892;PMS7003;54688;52.376;16.744;2024-01-10T12:31:37;124;105;
67892;PMS7003;54688;52.376;16.744;2024-01-10T12:34:40;120;98;
67892;PMS7003;54688;52.376;16.744;2024-01-10T12:37:53;127;103;
67892;PMS7003;54688;52.376;16.744;2024-01-10T12:40:55;125;105;
67892;PMS7003;54688;52.376;16.744;2024-01-10T12:43:59;126;106;
67892;PMS7003;54688;52.376;16.744;2024-01-10T12:47:03;115;92;
67892;PMS7003;54688;52.376;16.744;2024-01-10T12:50:06;113;87;
67892;PMS7003;54688;52.376;16.744;2024-01-10T12:53:09;111;87;
67892;PMS7003;54688;52.376;16.744;2024-01-10T12:56:12;98;79;
67892;PMS7003;54688;52.376;16.744;2024-01-10T12:59:14;107;85;
67892;PMS7003;54688;52.376;16.744;2024-01-10T13:02:16;90;73;
67892;PMS7003;54688;52.376;16.744;2024-01-10T13:05:19;95;74;
67892;PMS7003;54688;52.376;16.744;2024-01-10T13:08:21;107;83;
67892;PMS7003;54688;52.376;16.744;2024-01-10T13:11:23;102;82;
67892;PMS7003;54688;52.376;16.744;2024-01-10T13:14:26;111;89;
67892;PMS7003;54688;52.376;16.744;2024-01-10T13:17:28;124;91;
67892;PMS7003;54688;52.376;16.744;2024-01-10T13:20:30;117;104;
67892;PMS7003;54688;52.376;16.744;2024-01-10T13:23:32;122;93;
67892;PMS7003;54688;52.376;16.744;2024-01-10T13:26:35;108;93;
67892;PMS7003;54688;52.376;16.744;2024-01-10T13:29:38;130;100;
67892;PMS7003;54688;52.376;16.744;2024-01-10T13:32:40;133;97;
67892;PMS7003;54688;52.376;16.744;2024-01-10T13:35:43;124;99;
67892;PMS7003;54688;52.376;16.744;2024-01-10T13:38:46;112;93;
67892;PMS7003;54688;52.376;16.744;2024-01-10T13:41:48;105;88;
67892;PMS7003;54688;52.376;16.744;2024-01-10T13:44:50;103;90;
67892;PMS7003;54688;52.376;16.744;2024-01-10T13:47:52;94;80;
67892;PMS7003;54688;52.376;16.744;2024-01-10T13:50:55;115;89;
67892;PMS7003;54688;52.376;16.744;2024-01-10T13:53:58;99;84;
67892;PMS7003;54688;52.376;16.744;2024-01-10T13:57:00;97;80;
67892;PMS7003;54688;52.376;16.744;2024-01-10T14:00:03;93;77;
67892;PMS7003;54688;52.376;16.744;2024-01-10T14:03:06;114;85;
67892;PMS7003;54688;52.376;16.744;2024-01-10T14:06:08;95;83;
67892;PMS7003;54688;52.376;16.744;2024-01-10T14:09:10;105;85;
67892;PMS7003;54688;52.376;16.744;2024-01-10T14:12:12;117;92;
67892;PMS7003;54688;52.376;16.744;2024-01-10T14:15:14;113;87;
67892;PMS7003;54688;52.376;16.744;2024-01-10T14:18:17;98;76;
67892;PMS7003;54688;52.376;16.744;2024-01-10T14:21:19;111;87;
67892;PMS7003;54688;52.376;16.744;2024-01-10T14:24:22;105;85;
67892;PMS7003;54688;52.376;16.744;2024-01-10T14:27:25;106;87;
67892;PMS7003;54688;52.376;16.744;2024-01-10T14:30:27;110;88;
67892;PMS7003;54688;52.376;16.744;2024-01-10T14:33:30;119;90;
67892;PMS7003;54688;52.376;16.744;2024-01-10T14:36:32;123;100;
67892;PMS7003;54688;52.376;16.744;2024-01-10T14:39:34;123;97;
67892;PMS7003;54688;52.376;16.744;2024-01-10T14:42:37;132;92;
67892;PMS7003;54688;52.376;16.744;2024-01-10T14:45:39;124;100;
67892;PMS7003;54688;52.376;16.744;2024-01-10T14:48:42;110;87;
67892;PMS7003;54688;52.376;16.744;2024-01-10T14:51:44;93;84;
67892;PMS7003;54688;52.376;16.744;2024-01-10T14:54:46;110;85;
67892;PMS7003;54688;52.376;16.744;2024-01-10T14:57:49;93;79;
67892;PMS7003;54688;52.376;16.744;2024-01-10T15:00:51;91;79;
67892;PMS7003;54688;52.376;16.744;2024-01-10T15:03:53;95;70;
67892;PMS7003;54688;52.376;16.744;2024-01-10T15:06:55;96;84;
67892;PMS7003;54688;52.376;16.744;2024-01-10T15:09:57;102;84;
67892;PMS7003;54688;52.376;16.744;2024-01-10T15:12:59;118;93;
67892;PMS7003;54688;52.376;16.744;2024-01-10T15:16:01;127;102;
67892;PMS7003;54688;52.376;16.744;2024-01-10T15:19:04;132;103;
67892;PMS7003;54688;52.376;16.744;2024-01-10T15:22:07;149;117;
67892;PMS7003;54688;52.376;16.744;2024-01-10T15:25:11;143;109;
67892;PMS7003;54688;52.376;16.744;2024-01-10T15:28:13;150;118;
67892;PMS7003;54688;52.376;16.744;2024-01-10T15:31:15;152;122;
67892;PMS7003;54688;52.376;16.744;2024-01-10T15:34:17;161;134;
67892;PMS7003;54688;52.376;16.744;2024-01-10T15:37:19;159;129;
67892;PMS7003;54688;52.376;16.744;2024-01-10T15:40:22;164;125;
67892;PMS7003;54688;52.376;16.744;2024-01-10T15:43:24;148;122;
67892;PMS7003;54688;52.376;16.744;2024-01-10T15:46:26;170;128;
67892;PMS7003;54688;52.376;16.744;2024-01-10T15:49:29;177;130;
67892;PMS7003;54688;52.376;16.744;2024-01-10T15:52:31;176;142;
67892;PMS7003;54688;52.376;16.744;2024-01-10T15:55:33;172;144;
67892;PMS7003;54688;52.376;16.744;2024-01-10T15:58:35;204;158;
67892;PMS7003;54688;52.376;16.744;2024-01-10T16:01:37;149;122;
67892;PMS7003;54688;52.376;16.744;2024-01-10T16:04:40;135;112;
67892;PMS7003;54688;52.376;16.744;2024-01-10T16:07:43;185;131;
67892;PMS7003;54688;52.376;16.744;2024-01-10T16:10:45;145;119;
67892;PMS7003;54688;52.376;16.744;2024-01-10T16:13:48;141;114;
67892;PMS7003;54688;52.376;16.744;2024-01-10T16:16:50;173;141;
67892;PMS7003;54688;52.376;16.744;2024-01-10T16:19:53;166;125;
67892;PMS7003;54688;52.376;16.744;2024-01-10T16:22:55;150;127;
67892;PMS7003;54688;52.376;16.744;2024-01-10T16:25:57;249;190;
67892;PMS7003;54688;52.376;16.744;2024-01-10T16:28:59;260;199;
67892;PMS7003;54688;52.376;16.744;2024-01-10T16:32:03;241;187;
67892;PMS7003;54688;52.376;16.744;2024-01-10T16:35:06;254;200;
67892;PMS7003;54688;52.376;16.744;2024-01-10T16:38:10;248;201;
67892;PMS7003;54688;52.376;16.744;2024-01-10T16:41:12;247;207;
67892;PMS7003;54688;52.376;16.744;2024-01-10T16:44:13;285;231;
67892;PMS7003;54688;52.376;16.744;2024-01-10T16:47:15;236;191;
67892;PMS7003;54688;52.376;16.744;2024-01-10T16:50:18;174;146;
67892;PMS7003;54688;52.376;16.744;2024-01-10T16:53:20;154;134;
67892;PMS7003;54688;52.376;16.744;2024-01-10T16:56:22;175;124;
67892;PMS7003;54688;52.376;16.744;2024-01-10T16:59:24;150;107;
67892;PMS7003;54688;52.376;16.744;2024-01-10T17:02:26;134;110;
67892;PMS7003;54688;52.376;16.744;2024-01-10T17:05:29;146;112;
67892;PMS7003;54688;52.376;16.744;2024-01-10T17:08:31;148;114;
67892;PMS7003;54688;52.376;16.744;2024-01-10T17:11:33;133;112;
67892;PMS7003;54688;52.376;16.744;2024-01-10T17:14:35;165;130;
67892;PMS7003;54688;52.376;16.744;2024-01-10T17:17:37;172;135;
67892;PMS7003;54688;52.376;16.744;2024-01-10T17:20:40;187;147;
67892;PMS7003;54688;52.376;16.744;2024-01-10T17:23:42;200;154;
67892;PMS7003;54688;52.376;16.744;2024-01-10T17:26:44;189;147;
67892;PMS7003;54688;52.376;16.744;2024-01-10T17:29:47;178;136;
67892;PMS7003;54688;52.376;16.744;2024-01-10T17:32:49;166;132;
67892;PMS7003;54688;52.376;16.744;2024-01-10T17:35:52;192;143;
67892;PMS7003;54688;52.376;16.744;2024-01-10T17:38:55;189;136;
67892;PMS7003;54688;52.376;16.744;2024-01-10T17:41:57;183;134;
67892;PMS7003;54688;52.376;16.744;2024-01-10T17:44:59;229;179;
67892;PMS7003;54688;52.376;16.744;2024-01-10T17:48:02;247;206;
67892;PMS7003;54688;52.376;16.744;2024-01-10T17:51:04;264;192;
67892;PMS7003;54688;52.376;16.744;2024-01-10T17:54:06;244;187;
67892;PMS7003;54688;52.376;16.744;2024-01-10T17:57:09;225;177;
67892;PMS7003;54688;52.376;16.744;2024-01-10T18:00:13;233;184;
67892;PMS7003;54688;52.376;16.744;2024-01-10T18:03:16;283;218;
67892;PMS7003;54688;52.376;16.744;2024-01-10T18:06:18;247;202;
67892;PMS7003;54688;52.376;16.744;2024-01-10T18:09:20;264;205;
67892;PMS7003;54688;52.376;16.744;2024-01-10T18:12:22;262;195;
67892;PMS7003;54688;52.376;16.744;2024-01-10T18:15:24;263;202;
67892;PMS7003;54688;52.376;16.744;2024-01-10T18:18:26;274;199;
67892;PMS7003;54688;52.376;16.744;2024-01-10T18:21:28;280;215;
67892;PMS7003;54688;52.376;16.744;2024-01-10T18:24:30;264;200;
67892;PMS7003;54688;52.376;16.744;2024-01-10T18:27:33;274;211;
67892;PMS7003;54688;52.376;16.744;2024-01-10T18:30:36;212;168;
67892;PMS7003;54688;52.376;16.744;2024-01-10T18:33:38;201;150;
67892;PMS7003;54688;52.376;16.744;2024-01-10T18:36:40;162;125;
67892;PMS7003;54688;52.376;16.744;2024-01-10T18:39:43;141;120;
67892;PMS7003;54688;52.376;16.744;2024-01-10T18:42:45;155;121;
67892;PMS7003;54688;52.376;16.744;2024-01-10T18:45:48;170;134;
67892;PMS7003;54688;52.376;16.744;2024-01-10T18:48:51;181;148;
67892;PMS7003;54688;52.376;16.744;2024-01-10T18:51:54;199;149;
67892;PMS7003;54688;52.376;16.744;2024-01-10T18:54:55;196;149;
67892;PMS7003;54688;52.376;16.744;2024-01-10T18:57:58;210;159;
67892;PMS7003;54688;52.376;16.744;2024-01-10T19:01:00;220;168;
67892;PMS7003;54688;52.376;16.744;2024-01-10T19:04:04;189;146;
67892;PMS7003;54688;52.376;16.744;2024-01-10T19:07:06;195;153;
67892;PMS7003;54688;52.376;16.744;2024-01-10T19:10:09;235;195;
67892;PMS7003;54688;52.376;16.744;2024-01-10T19:13:11;263;204;
67892;PMS7003;54688;52.376;16.744;2024-01-10T19:16:14;233;188;
67892;PMS7003;54688;52.376;16.744;2024-01-10T19:19:16;250;195;
67892;PMS7003;54688;52.376;16.744;2024-01-10T19:22:18;265;208;
67892;PMS7003;54688;52.376;16.744;2024-01-10T19:25:23;277;215;
67892;PMS7003;54688;52.376;16.744;2024-01-10T19:28:26;252;197;